createdAt,value
2019-01-02T00:00:37.889Z,2.60
2019-01-02T00:03:26.677Z,2.30
2019-01-02T00:06:16.672Z,3.27
2019-01-02T00:09:07.348Z,2.87
2019-01-02T00:11:56.897Z,2.80
2019-01-02T00:14:45.796Z,2.73
2019-01-02T00:17:34.742Z,2.37
2019-01-02T00:20:24.193Z,2.57
2019-01-02T00:23:12.572Z,2.40
2019-01-02T00:26:01.691Z,2.73
2019-01-02T00:28:50.348Z,2.83
2019-01-02T00:31:39.266Z,2.17
2019-01-02T00:34:28.049Z,2.87
2019-01-02T00:37:16.820Z,3.57
2019-01-02T00:40:06.600Z,2.80
2019-01-02T00:42:55.936Z,2.70
2019-01-02T00:45:44.996Z,2.70
2019-01-02T00:48:33.320Z,2.37
2019-01-02T00:51:21.976Z,2.67
2019-01-02T00:54:11.059Z,2.53
2019-01-02T00:56:59.892Z,2.97
2019-01-02T00:59:49.181Z,3.70
2019-01-02T01:02:38.570Z,3.20
2019-01-02T01:05:27.410Z,2.90
2019-01-02T01:08:16.464Z,3.20
2019-01-02T01:11:05.669Z,2.77
2019-01-02T01:13:54.741Z,2.70
2019-01-02T01:16:43.730Z,2.83
2019-01-02T01:19:33.156Z,2.83
2019-01-02T01:22:21.777Z,3.40
2019-01-02T01:25:11.992Z,3.07
2019-01-02T01:28:00.826Z,2.70
2019-01-02T01:30:49.679Z,2.97
2019-01-02T01:33:38.866Z,3.93
2019-01-02T01:36:27.808Z,3.00
2019-01-02T01:39:16.736Z,3.03
2019-01-02T01:42:05.768Z,3.53
2019-01-02T01:44:54.868Z,3.10
2019-01-02T01:47:43.544Z,3.57
2019-01-02T01:50:32.727Z,3.70
2019-01-02T01:53:21.995Z,3.57
2019-01-02T01:56:11.003Z,3.37
2019-01-02T01:58:59.777Z,3.23
2019-01-02T02:01:50.169Z,3.37
2019-01-02T02:04:38.937Z,3.00
2019-01-02T02:07:28.312Z,2.93
2019-01-02T02:10:17.676Z,3.20
2019-01-02T02:13:07.454Z,3.57
2019-01-02T02:15:56.161Z,3.03
2019-01-02T02:18:45.580Z,3.13
2019-01-02T02:21:34.463Z,4.27
2019-01-02T02:24:24.809Z,2.70
2019-01-02T02:27:13.777Z,3.17
2019-01-02T02:30:02.717Z,2.73
2019-01-02T02:32:52.222Z,2.63
2019-01-02T02:35:41.167Z,2.50
2019-01-02T02:38:30.448Z,3.07
2019-01-02T02:41:19.752Z,3.00
2019-01-02T02:44:09.137Z,3.60
2019-01-02T02:46:58.688Z,3.40
2019-01-02T02:49:47.521Z,3.67
2019-01-02T02:52:35.943Z,3.47
2019-01-02T02:55:26.629Z,2.40
2019-01-02T02:58:16.591Z,2.93
2019-01-02T03:01:05.602Z,2.63
2019-01-02T03:03:54.841Z,3.40
2019-01-02T03:06:44.966Z,3.07
2019-01-02T03:09:34.529Z,3.40
2019-01-02T03:12:23.436Z,2.83
2019-01-02T03:15:12.380Z,3.27
2019-01-02T03:18:00.988Z,3.27
2019-01-02T03:20:49.689Z,4.60
2019-01-02T03:23:38.392Z,2.77
2019-01-02T03:26:27.112Z,3.07
2019-01-02T03:29:16.168Z,4.53
2019-01-02T03:32:05.481Z,3.10
2019-01-02T03:34:54.669Z,4.10
2019-01-02T03:37:43.908Z,3.87
2019-01-02T03:40:32.872Z,3.70
2019-01-02T03:43:21.653Z,2.60
2019-01-02T03:46:10.382Z,2.80
2019-01-02T03:48:59.114Z,2.20
2019-01-02T03:51:47.840Z,3.00
2019-01-02T03:54:37.160Z,1.83
2019-01-02T03:57:26.045Z,2.03
2019-01-02T04:00:16.842Z,1.83
2019-01-02T04:03:05.593Z,1.33
2019-01-02T04:05:54.585Z,2.47
2019-01-02T04:08:44.045Z,1.73
2019-01-02T04:11:32.920Z,2.27
2019-01-02T04:14:21.566Z,1.57
2019-01-02T04:17:10.224Z,2.03
2019-01-02T04:19:59.040Z,1.70
2019-01-02T04:22:48.233Z,1.80
2019-01-02T04:25:38.013Z,2.20
2019-01-02T04:28:27.371Z,2.43
2019-01-02T04:31:15.859Z,1.70
2019-01-02T04:34:04.578Z,2.50
2019-01-02T04:36:53.148Z,2.60
2019-01-02T04:39:42.317Z,2.53
2019-01-02T04:42:31.281Z,2.23
2019-01-02T04:45:20.233Z,2.77
2019-01-02T04:48:09.207Z,2.40
2019-01-02T04:50:58.163Z,2.17
2019-01-02T04:53:29.276Z,3.10
2019-01-02T04:56:00.692Z,2.07
2019-01-02T04:58:31.740Z,2.13
2019-01-02T05:01:02.929Z,2.20
2019-01-02T05:03:33.896Z,2.00
2019-01-02T05:06:05.120Z,3.43
2019-01-02T05:08:36.113Z,2.47
2019-01-02T05:11:07.271Z,2.23
2019-01-02T05:13:38.393Z,2.20
2019-01-02T05:16:09.776Z,2.53
2019-01-02T05:18:41.065Z,2.80
2019-01-02T05:21:12.289Z,2.73
2019-01-02T05:23:43.036Z,2.60
2019-01-02T05:26:14.186Z,2.47
2019-01-02T05:28:45.166Z,2.13
2019-01-02T05:31:16.011Z,3.07
2019-01-02T05:33:46.916Z,2.63
2019-01-02T05:36:18.352Z,2.80
2019-01-02T05:38:49.497Z,2.70
2019-01-02T05:41:20.299Z,2.03
2019-01-02T05:43:51.955Z,1.60
2019-01-02T05:46:23.370Z,2.27
2019-01-02T05:48:54.724Z,1.30
2019-01-02T05:51:26.100Z,2.03
2019-01-02T05:53:57.612Z,1.30
2019-01-02T05:56:28.342Z,1.50
2019-01-02T05:58:59.272Z,1.30
2019-01-02T06:01:30.332Z,1.20
2019-01-02T06:04:01.415Z,1.43
2019-01-02T06:06:32.648Z,1.10
2019-01-02T06:09:04.164Z,1.17
2019-01-02T06:11:35.104Z,1.17
2019-01-02T06:14:06.476Z,1.60
2019-01-02T06:16:37.695Z,1.67
2019-01-02T06:19:08.956Z,1.83
2019-01-02T06:21:40.289Z,1.43
2019-01-02T06:24:11.177Z,1.60
2019-01-02T06:26:42.139Z,1.27
2019-01-02T06:29:13.452Z,1.73
2019-01-02T06:31:44.676Z,1.27
2019-01-02T06:34:15.866Z,1.70
2019-01-02T06:36:47.007Z,1.30
2019-01-02T06:39:17.660Z,1.20
2019-01-02T06:41:49.095Z,2.43
2019-01-02T06:44:19.736Z,1.60
2019-01-02T06:46:51.057Z,1.60
2019-01-02T06:49:21.904Z,1.40
2019-01-02T06:51:53.238Z,1.90
2019-01-02T06:54:24.608Z,2.70
2019-01-02T06:56:56.365Z,2.40
2019-01-02T06:59:27.325Z,2.47
2019-01-02T07:01:58.490Z,2.10
2019-01-02T07:04:29.644Z,1.93
2019-01-02T07:07:00.964Z,1.67
2019-01-02T07:09:32.728Z,2.17
2019-01-02T07:12:03.817Z,2.43
2019-01-02T07:14:36.564Z,2.30
2019-01-02T07:17:07.387Z,1.87
2019-01-02T07:19:38.832Z,2.10
2019-01-02T07:22:09.963Z,2.40
2019-01-02T07:24:40.848Z,2.13
2019-01-02T07:27:11.727Z,3.10
2019-01-02T07:29:42.447Z,2.00
2019-01-02T07:32:13.614Z,1.97
2019-01-02T07:35:19.708Z,2.13
2019-01-02T07:38:11.929Z,2.33
2019-01-02T07:41:19.607Z,2.07
2019-01-02T07:44:21.887Z,2.60
2019-01-02T07:47:22.075Z,2.30
2019-01-02T07:50:20.610Z,2.40
2019-01-02T07:53:21.972Z,2.50
2019-01-02T07:56:30.915Z,2.20
2019-01-02T07:59:51.542Z,2.03
2019-01-02T08:02:56.569Z,1.73
2019-01-02T08:06:02.307Z,1.77
2019-01-02T08:09:08.664Z,2.30
2019-01-02T08:12:18.315Z,3.10
2019-01-02T08:15:35.139Z,2.47
2019-01-02T08:18:42.355Z,2.17
2019-01-02T08:21:50.548Z,2.30
2019-01-02T08:25:07.167Z,2.00
2019-01-02T08:28:07.294Z,2.20
2019-01-02T08:30:57.418Z,1.70
2019-01-02T08:34:24.552Z,2.27
2019-01-02T08:37:31.279Z,3.33
2019-01-02T08:40:12.208Z,2.97
2019-01-02T08:43:17.588Z,2.90
2019-01-02T08:46:24.162Z,2.90
2019-01-02T08:49:40.716Z,2.23
2019-01-02T08:52:42.548Z,2.43
2019-01-02T08:55:54.778Z,2.47
2019-01-02T08:59:09.844Z,2.13
2019-01-02T09:02:11.247Z,2.60
2019-01-02T09:05:16.803Z,1.83
2019-01-02T09:08:16.175Z,2.47
2019-01-02T09:11:16.197Z,2.57
2019-01-02T09:14:32.669Z,3.00
2019-01-02T09:17:37.156Z,2.73
2019-01-02T09:20:47.421Z,2.33
2019-01-02T09:24:20.877Z,3.47
2019-01-02T09:27:22.112Z,2.83
2019-01-02T09:30:33.583Z,2.93
2019-01-02T09:33:52.300Z,2.93
2019-01-02T09:36:47.221Z,3.00
2019-01-02T09:39:34.078Z,2.60
2019-01-02T09:42:30.241Z,2.73
2019-01-02T09:45:42.225Z,2.60
2019-01-02T09:48:53.859Z,2.93
2019-01-02T09:52:20.160Z,3.13
2019-01-02T09:55:24.220Z,2.80
2019-01-02T09:58:29.125Z,2.53
2019-01-02T10:01:11.455Z,2.60
2019-01-02T10:03:57.395Z,4.77
2019-01-02T10:06:59.970Z,3.03
2019-01-02T10:10:22.126Z,2.77
2019-01-02T10:14:01.048Z,3.17
2019-01-02T10:17:01.119Z,2.80
2019-01-02T10:20:10.604Z,2.77
2019-01-02T10:23:41.047Z,3.27
2019-01-02T10:26:43.602Z,3.50
2019-01-02T10:29:46.011Z,2.50
2019-01-02T10:33:11.304Z,2.37
2019-01-02T10:36:21.915Z,2.83
2019-01-02T10:39:23.103Z,2.33
2019-01-02T10:42:34.531Z,2.70
2019-01-02T10:45:51.770Z,2.40
2019-01-02T10:48:37.100Z,3.37
2019-01-02T10:51:42.659Z,2.87
2019-01-02T10:54:44.987Z,2.60
2019-01-02T10:57:40.611Z,2.37
2019-01-02T11:00:46.003Z,3.20
2019-01-02T11:04:07.307Z,2.77
2019-01-02T11:07:28.819Z,4.10
2019-01-02T11:10:26.256Z,2.37
2019-01-02T11:13:46.804Z,3.03
2019-01-02T11:16:55.909Z,2.67
2019-01-02T11:19:50.989Z,2.83
2019-01-02T11:22:44.679Z,2.63
2019-01-02T11:25:42.552Z,2.57
2019-01-02T11:28:38.521Z,2.87
2019-01-02T11:31:47.080Z,2.30
2019-01-02T11:35:03.734Z,3.80
2019-01-02T11:38:16.568Z,2.50
2019-01-02T11:41:33.940Z,2.80
2019-01-02T11:44:46.773Z,2.47
2019-01-02T11:47:17.648Z,2.90
2019-01-02T11:49:49.070Z,2.50
2019-01-02T11:52:20.139Z,2.50
2019-01-02T11:54:51.067Z,2.53
2019-01-02T11:57:21.941Z,3.43
2019-01-02T11:59:52.676Z,3.13
2019-01-02T12:02:23.794Z,2.50
2019-01-02T12:04:56.554Z,2.80
2019-01-02T12:07:28.980Z,2.57
2019-01-02T12:10:01.650Z,2.50
2019-01-02T12:12:32.877Z,2.77
2019-01-02T12:15:03.708Z,2.90
2019-01-02T12:17:34.693Z,2.80
2019-01-02T12:20:09.020Z,2.67
2019-01-02T12:22:40.351Z,2.10
2019-01-02T12:25:11.339Z,2.43
2019-01-02T12:27:42.107Z,2.30
2019-01-02T12:30:14.992Z,2.80
2019-01-02T12:32:46.617Z,2.85
2019-01-02T12:35:19.046Z,3.67
2019-01-02T12:37:50.276Z,3.13
2019-01-02T12:40:21.319Z,2.87
2019-01-02T12:42:52.548Z,2.30
2019-01-02T12:45:23.568Z,2.50
2019-01-02T12:47:54.452Z,2.30
2019-01-02T12:50:25.387Z,2.73
2019-01-02T12:52:56.211Z,1.97
2019-01-02T12:55:27.172Z,2.77
2019-01-02T12:57:58.060Z,3.07
2019-01-02T13:00:35.149Z,3.00
2019-01-02T13:04:02.652Z,2.30
2019-01-02T13:07:27.420Z,1.73
2019-01-02T13:10:16.375Z,2.67
2019-01-02T13:13:23.811Z,2.87
2019-01-02T13:16:31.548Z,4.67
2019-01-02T13:19:47.144Z,2.97
2019-01-02T13:23:04.866Z,2.60
2019-01-02T13:25:49.793Z,3.20
2019-01-02T13:29:04.819Z,2.53
2019-01-02T13:32:07.863Z,2.83
2019-01-02T13:34:51.724Z,2.83
2019-01-02T13:37:41.028Z,3.60
2019-01-02T13:40:40.919Z,2.50
2019-01-02T13:44:04.612Z,2.97
2019-01-02T13:47:22.692Z,2.80
2019-01-02T13:50:11.286Z,3.10
2019-01-02T13:52:43.591Z,2.33
2019-01-02T13:55:18.599Z,2.30
2019-01-02T13:57:51.580Z,2.97
2019-01-02T14:00:23.260Z,1.73
2019-01-02T14:02:54.179Z,2.27
2019-01-02T14:05:25.544Z,2.73
2019-01-02T14:07:56.700Z,2.47
2019-01-02T14:10:27.427Z,2.60
2019-01-02T14:12:58.512Z,2.13
2019-01-02T14:15:29.890Z,2.43
2019-01-02T14:18:00.967Z,2.13
2019-01-02T14:20:32.042Z,2.13
2019-01-02T14:23:03.105Z,2.53
2019-01-02T14:25:34.035Z,2.30
2019-01-02T14:28:05.060Z,2.20
2019-01-02T14:30:36.864Z,1.53
2019-01-02T14:33:08.153Z,2.17
2019-01-02T14:35:39.145Z,1.43
2019-01-02T14:38:09.942Z,2.33
2019-01-02T14:40:43.401Z,2.37
2019-01-02T14:43:15.004Z,1.67
2019-01-02T14:45:45.976Z,2.07
2019-01-02T14:48:17.219Z,1.53
2019-01-02T14:50:49.342Z,1.90
2019-01-02T14:53:20.101Z,1.83
2019-01-02T14:55:51.411Z,2.27
2019-01-02T14:58:23.468Z,1.90
2019-01-02T15:00:54.544Z,2.07
2019-01-02T15:03:25.807Z,2.10
2019-01-02T15:05:56.684Z,2.63
2019-01-02T15:08:27.959Z,2.00
2019-01-02T15:10:58.657Z,2.30
2019-01-02T15:13:30.086Z,1.93
2019-01-02T15:16:01.703Z,2.67
2019-01-02T15:18:32.599Z,3.23
2019-01-02T15:21:03.936Z,2.10
2019-01-02T15:23:35.123Z,1.90
2019-01-02T15:26:07.591Z,2.73
2019-01-02T15:28:38.555Z,3.00
2019-01-02T15:31:10.045Z,2.50
2019-01-02T15:33:43.683Z,2.70
2019-01-02T15:36:15.209Z,2.57
2019-01-02T15:38:47.840Z,2.80
2019-01-02T15:41:18.859Z,2.63
2019-01-02T15:43:49.755Z,2.07
2019-01-02T15:46:20.667Z,2.13
2019-01-02T15:48:51.519Z,2.17
2019-01-02T15:51:23.056Z,2.13
2019-01-02T15:53:55.771Z,2.53
2019-01-02T15:56:26.634Z,2.13
2019-01-02T15:58:57.575Z,2.80
2019-01-02T16:01:28.600Z,2.43
2019-01-02T16:04:00.954Z,2.90
2019-01-02T16:06:32.079Z,2.83
2019-01-02T16:09:07.479Z,2.10
2019-01-02T16:11:38.095Z,3.57
2019-01-02T16:14:10.583Z,2.97
2019-01-02T16:16:43.567Z,2.83
2019-01-02T16:19:14.428Z,4.20
2019-01-02T16:21:47.716Z,3.87
2019-01-02T16:24:18.808Z,3.80
2019-01-02T16:26:49.896Z,3.10
2019-01-02T16:29:24.288Z,2.53
2019-01-02T16:31:55.572Z,2.83
2019-01-02T16:34:26.560Z,2.73
2019-01-02T16:36:57.643Z,2.93
2019-01-02T16:39:29.144Z,2.47
2019-01-02T16:42:00.237Z,2.60
2019-01-02T16:44:31.876Z,3.03
2019-01-02T16:47:02.992Z,2.73
2019-01-02T16:49:34.128Z,2.53
2019-01-02T16:52:04.910Z,2.00
2019-01-02T16:54:35.755Z,3.03
2019-01-02T16:57:06.781Z,1.83
2019-01-02T16:59:39.010Z,2.03
2019-01-02T17:02:10.265Z,2.50
2019-01-02T17:04:43.466Z,2.70
2019-01-02T17:07:14.952Z,2.93
2019-01-02T17:09:46.259Z,3.97
2019-01-02T17:12:22.683Z,2.27
2019-01-02T17:14:55.578Z,2.80
2019-01-02T17:17:30.954Z,2.87
2019-01-02T17:20:04.114Z,3.23
2019-01-02T17:22:37.725Z,2.90
2019-01-02T17:25:11.342Z,2.97
2019-01-02T17:27:44.305Z,3.27
2019-01-02T17:30:16.873Z,2.60
2019-01-02T17:32:50.580Z,3.43
2019-01-02T17:35:23.982Z,2.67
2019-01-02T17:37:55.021Z,2.93
2019-01-02T17:40:27.439Z,2.50
2019-01-02T17:42:58.904Z,2.40
2019-01-02T17:45:30.081Z,2.80
2019-01-02T17:48:04.322Z,2.67
2019-01-02T17:50:35.222Z,2.67
2019-01-02T17:53:07.737Z,2.47
2019-01-02T17:55:40.550Z,2.80
2019-01-02T17:58:13.485Z,2.87
2019-01-02T18:00:45.068Z,4.00
2019-01-02T18:03:16.292Z,3.07
2019-01-02T18:05:47.659Z,3.03
2019-01-02T18:08:18.868Z,2.57
2019-01-02T18:10:49.984Z,2.73
2019-01-02T18:13:20.717Z,3.13
2019-01-02T18:15:53.182Z,2.87
2019-01-02T18:18:27.408Z,4.00
2019-01-02T18:20:59.995Z,3.00
2019-01-02T18:23:32.724Z,3.87
2019-01-02T18:26:05.855Z,3.27
2019-01-02T18:28:38.471Z,3.50
2019-01-02T18:31:11.902Z,4.87
2019-01-02T18:33:45.236Z,4.50
2019-01-02T18:36:18.654Z,5.97
2019-01-02T18:38:51.097Z,4.40
2019-01-02T18:41:24.191Z,4.30
2019-01-02T18:43:57.950Z,4.03
2019-01-02T18:46:31.764Z,4.87
2019-01-02T18:49:04.756Z,4.23
2019-01-02T18:51:37.708Z,4.10
2019-01-02T18:54:10.235Z,4.57
2019-01-02T18:56:43.498Z,3.60
2019-01-02T18:59:16.433Z,3.33
2019-01-02T19:01:49.577Z,3.43
2019-01-02T19:04:22.007Z,3.47
2019-01-02T19:06:54.885Z,2.70
2019-01-02T19:09:27.470Z,2.10
2019-01-02T19:12:00.357Z,2.77
2019-01-02T19:14:33.028Z,3.20
2019-01-02T19:17:06.141Z,2.60
2019-01-02T19:19:40.023Z,3.20
2019-01-02T19:22:13.556Z,3.10
2019-01-02T19:24:46.369Z,2.97
2019-01-02T19:27:19.759Z,3.00
2019-01-02T19:29:53.414Z,2.80
2019-01-02T19:32:25.990Z,2.50
2019-01-02T19:34:58.726Z,3.00
2019-01-02T19:37:31.369Z,3.30
2019-01-02T19:40:02.407Z,2.33
2019-01-02T19:42:34.745Z,3.00
2019-01-02T19:45:08.066Z,3.13
2019-01-02T19:47:38.924Z,2.47
2019-01-02T19:50:09.820Z,2.10
2019-01-02T19:52:41.957Z,3.00
2019-01-02T19:55:13.092Z,2.60
2019-01-02T19:57:44.474Z,2.60
2019-01-02T20:00:15.564Z,2.83
2019-01-02T20:02:46.405Z,3.73
2019-01-02T20:05:17.730Z,3.40
2019-01-02T20:07:48.595Z,2.90
2019-01-02T20:10:19.683Z,3.33
2019-01-02T20:12:52.593Z,2.37
2019-01-02T20:15:23.711Z,2.70
2019-01-02T20:17:54.941Z,2.30
2019-01-02T20:20:25.891Z,2.20
2019-01-02T20:22:57.251Z,3.23
2019-01-02T20:25:28.197Z,2.93
2019-01-02T20:27:59.294Z,2.70
2019-01-02T20:30:30.392Z,2.50
2019-01-02T20:33:01.484Z,2.30
2019-01-02T20:35:33.635Z,2.80
2019-01-02T20:38:04.284Z,3.60
2019-01-02T20:40:35.217Z,2.37
2019-01-02T20:43:06.508Z,2.60
2019-01-02T20:45:37.513Z,2.87
2019-01-02T20:48:09.833Z,2.50
2019-01-02T20:50:40.920Z,2.60
2019-01-02T20:53:13.769Z,2.10
2019-01-02T20:55:45.186Z,1.93
2019-01-02T20:58:16.469Z,2.60
2019-01-02T21:00:47.276Z,2.43
2019-01-02T21:03:18.693Z,2.83
2019-01-02T21:05:50.016Z,2.43
2019-01-02T21:08:21.345Z,2.33
2019-01-02T21:10:53.566Z,2.30
2019-01-02T21:13:24.736Z,2.47
2019-01-02T21:15:55.934Z,2.70
2019-01-02T21:18:27.237Z,2.00
2019-01-02T21:20:58.304Z,2.37
2019-01-02T21:23:29.485Z,2.73
2019-01-02T21:26:00.596Z,3.40
2019-01-02T21:28:31.598Z,6.47
2019-01-02T21:31:02.728Z,3.50
2019-01-02T21:33:33.961Z,1.67
2019-01-02T21:36:05.073Z,2.53
2019-01-02T21:38:36.336Z,2.77
2019-01-02T21:41:07.277Z,2.57
2019-01-02T21:43:38.424Z,1.90
2019-01-02T21:46:09.107Z,2.40
2019-01-02T21:48:41.362Z,2.63
2019-01-02T21:51:12.488Z,2.40
2019-01-02T21:53:44.872Z,2.63
2019-01-02T21:56:15.922Z,2.27
2019-01-02T21:58:46.725Z,2.67
2019-01-02T22:01:18.059Z,2.00
2019-01-02T22:03:49.360Z,2.47
2019-01-02T22:06:20.144Z,2.30
2019-01-02T22:08:51.077Z,1.80
2019-01-02T22:11:22.104Z,2.50
2019-01-02T22:13:52.945Z,2.50
2019-01-02T22:16:23.995Z,3.23
2019-01-02T22:18:55.756Z,3.20
2019-01-02T22:21:26.990Z,3.57
2019-01-02T22:23:58.444Z,3.50
2019-01-02T22:26:29.368Z,2.63
2019-01-02T22:29:00.376Z,2.37
2019-01-02T22:31:31.414Z,2.77
2019-01-02T22:34:02.443Z,2.13
2019-01-02T22:36:34.768Z,1.90
2019-01-02T22:39:07.672Z,2.40
2019-01-02T22:41:38.626Z,2.07
2019-01-02T22:44:09.720Z,1.83
2019-01-02T22:46:41.050Z,2.00
2019-01-02T22:49:12.884Z,1.93
2019-01-02T22:51:44.212Z,2.70
2019-01-02T22:54:15.693Z,2.30
2019-01-02T22:56:46.824Z,2.70
2019-01-02T22:59:18.344Z,2.90
2019-01-02T23:02:00.659Z,2.43
2019-01-02T23:05:05.984Z,1.70
2019-01-02T23:07:55.235Z,2.33
2019-01-02T23:10:43.911Z,1.80
2019-01-02T23:13:38.822Z,1.80
2019-01-02T23:16:23.885Z,1.90
2019-01-02T23:19:13.183Z,2.17
2019-01-02T23:22:01.700Z,1.60
2019-01-02T23:24:44.832Z,1.60
2019-01-02T23:27:44.309Z,1.93
2019-01-02T23:30:34.140Z,1.57
2019-01-02T23:33:23.324Z,2.67
2019-01-02T23:36:12.878Z,2.10
2019-01-02T23:39:03.869Z,1.50
2019-01-02T23:41:58.092Z,1.20
2019-01-02T23:44:47.224Z,2.97
2019-01-02T23:47:35.624Z,1.57
2019-01-02T23:50:32.343Z,1.13
2019-01-02T23:53:37.359Z,1.00
2019-01-02T23:56:30.281Z,1.67
2019-01-02T23:59:12.660Z,1.87
